Time;durP1;ratioP1;P1;durP2;ratioP2;P2;SDS_P1;SDS_P2;PMS_P1;PMS_P2;Temp;Humidity;BMP_temperature;BMP_pressure;BME280_temperature;BME280_humidity;BME280_pressure;Samples;Min_cycle;Max_cycle;Signal;HPM_P1;HPM_P2
2022/05/03 00:00:05;;;;;;;25.13;16.73;;;13.10;85.60;;;;;;5063884;28;20273;-71
2022/05/03 00:03:08;;;;;;;25.13;16.83;;;13.10;86.10;;;;;;5065711;28;20239;-71
2022/05/03 00:06:02;;;;;;;26.85;16.80;;;13.10;85.70;;;;;;5046529;28;20200;-71
2022/05/03 00:08:32;;;;;;;26.35;16.92;;;13.00;85.80;;;;;;5066149;28;20217;-71
2022/05/03 00:11:17;;;;;;;25.40;16.17;;;13.00;86.00;;;;;;5062946;28;20197;-71
2022/05/03 00:13:46;;;;;;;23.58;16.02;;;13.00;86.20;;;;;;5065507;28;20199;-71
2022/05/03 00:16:15;;;;;;;22.40;16.30;;;12.90;86.20;;;;;;5049421;28;20210;-71
2022/05/03 00:18:41;;;;;;;24.25;17.02;;;12.90;86.50;;;;;;5064179;28;20190;-72
2022/05/03 00:21:08;;;;;;;25.15;17.10;;;12.90;86.60;;;;;;5067744;28;20204;-72
2022/05/03 00:23:34;;;;;;;28.20;17.95;;;12.90;86.80;;;;;;5065301;28;20182;-70
2022/05/03 00:26:00;;;;;;;25.02;17.52;;;12.80;86.90;;;;;;5069110;28;20545;-70
2022/05/03 00:28:26;;;;;;;26.33;17.85;;;12.80;87.10;;;;;;5065056;28;20194;-71
2022/05/03 00:30:54;;;;;;;25.88;17.90;;;12.70;87.30;;;;;;5065775;28;20230;-70
2022/05/03 00:33:20;;;;;;;25.73;17.67;;;12.70;87.40;;;;;;5065511;28;20191;-70
2022/05/03 00:35:45;;;;;;;28.40;18.60;;;12.70;87.60;;;;;;5067354;28;20205;-71
2022/05/03 00:38:11;;;;;;;23.95;17.48;;;12.70;87.80;;;;;;5066212;28;20197;-70
2022/05/03 00:40:44;;;;;;;24.33;17.90;;;12.60;88.00;;;;;;5063773;28;20265;-71
2022/05/03 00:43:20;;;;;;;24.20;17.75;;;12.60;88.10;;;;;;5067116;28;20179;-70
2022/05/03 00:45:54;;;;;;;24.67;18.35;;;12.60;88.20;;;;;;5068410;28;20221;-70
2022/05/03 00:48:47;;;;;;;25.35;18.55;;;12.50;88.40;;;;;;5066445;28;20191;-70
2022/05/03 00:51:18;;;;;;;27.13;18.63;;;12.50;88.50;;;;;;5067519;28;20194;-70
2022/05/03 00:53:52;;;;;;;25.60;17.90;;;12.40;88.60;;;;;;5064453;28;20191;-70
2022/05/03 00:56:18;;;;;;;28.10;18.17;;;12.40;88.70;;;;;;5068095;28;20428;-70
2022/05/03 00:58:56;;;;;;;24.67;18.67;;;12.40;88.90;;;;;;5068270;28;20314;-71
2022/05/03 01:01:31;;;;;;;27.27;19.08;;;12.40;89.00;;;;;;5071096;28;20182;-71
2022/05/03 01:04:19;;;;;;;27.83;19.63;;;12.40;89.20;;;;;;5070081;28;20189;-71
2022/05/03 01:07:13;;;;;;;26.05;18.50;;;12.30;89.30;;;;;;5071159;28;20232;-72
2022/05/03 01:10:06;;;;;;;26.92;18.67;;;12.30;89.40;;;;;;5066351;28;20736;-70
2022/05/03 01:12:44;;;;;;;;;;;12.30;90.00;;;;;;5052837;28;20441;-70
2022/05/03 01:15:19;;;;;;;;;;;12.80;90.00;;;;;;5069980;28;19919;-70
2022/05/03 01:18:08;;;;;;;;;;;12.60;90.00;;;;;;5071923;28;20319;-69
2022/05/03 01:20:42;;;;;;;;;;;12.40;90.20;;;;;;5068811;28;20384;-70
2022/05/03 01:23:08;;;;;;;;;;;12.30;90.30;;;;;;5071753;28;19910;-70
2022/05/03 01:25:54;;;;;;;;;;;12.20;90.30;;;;;;5053159;28;20448;-70
2022/05/03 01:28:39;;;;;;;;;;;12.20;90.30;;;;;;5067516;28;20353;-68
2022/05/03 01:31:07;;;;;;;;;;;12.10;90.40;;;;;;5070252;28;19916;-71
2022/05/03 01:33:33;;;;;;;;;;;12.10;90.40;;;;;;5069003;28;20379;-68
2022/05/03 01:36:00;;;;;;;;;;;12.00;90.60;;;;;;5072120;28;19919;-69
2022/05/03 01:38:44;;;;;;;;;;;12.00;90.60;;;;;;5067103;28;19916;-69
2022/05/03 01:41:26;;;;;;;;;;;12.00;90.70;;;;;;5070261;28;19908;-70
2022/05/03 01:44:08;;;;;;;;;;;11.90;90.70;;;;;;5069142;28;20333;-70
2022/05/03 01:46:35;;;;;;;;;;;11.90;90.80;;;;;;5070871;28;19916;-70
2022/05/03 01:52:08;;;;;;;;;;;11.90;90.90;;;;;;5071385;28;20414;-70
2022/05/03 01:54:53;;;;;;;;;;;11.90;91.00;;;;;;5069001;28;19923;-71
2022/05/03 01:57:54;;;;;;;;;;;11.90;91.00;;;;;;5070423;28;19947;-71
2022/05/03 02:00:22;;;;;;;;;;;11.80;91.00;;;;;;5068034;28;19958;-72
2022/05/03 02:03:00;;;;;;;;;;;11.80;91.10;;;;;;5070063;28;19909;-71
2022/05/03 02:05:45;;;;;;;;;;;11.80;91.10;;;;;;5069094;28;19912;-71
2022/05/03 02:08:13;;;;;;;;;;;11.80;91.20;;;;;;5067241;28;19908;-71
2022/05/03 02:10:53;;;;;;;;;;;11.70;91.20;;;;;;5067866;28;19913;-70
2022/05/03 02:14:43;;;;;;;;;;;11.70;91.20;;;;;;5069459;28;19914;-70
2022/05/03 02:16:27;;;;;;;;;;;11.70;91.30;;;;;;5069709;28;19931;-70
2022/05/03 02:19:16;;;;;;;;;;;11.70;91.30;;;;;;5068416;28;19912;-71
2022/05/03 02:21:50;;;;;;;;;;;12.10;91.50;;;;;;5066974;28;19908;-70
2022/05/03 02:24:32;;;;;;;;;;;11.90;91.40;;;;;;5068524;28;19912;-70
2022/05/03 02:27:07;;;;;;;;;;;11.80;91.50;;;;;;5067684;28;19954;-70
2022/05/03 02:29:50;;;;;;;;;;;11.70;91.60;;;;;;5067071;28;19916;-70
2022/05/03 02:32:21;;;;;;;;;;;11.70;91.60;;;;;;5069583;28;19927;-70
2022/05/03 02:34:53;;;;;;;;;;;11.60;91.60;;;;;;5067095;28;20380;-70
2022/05/03 02:37:23;;;;;;;;;;;11.50;91.60;;;;;;5067238;28;19916;-69
2022/05/03 02:39:48;;;;;;;;;;;11.50;91.60;;;;;;5066279;28;19912;-69
2022/05/03 02:42:14;;;;;;;;;;;11.50;91.70;;;;;;5068208;28;19934;-70
2022/05/03 02:44:40;;;;;;;;;;;11.50;91.70;;;;;;5071523;28;19957;-69
2022/05/03 02:47:09;;;;;;;;;;;11.40;91.70;;;;;;5066346;28;19913;-69
2022/05/03 02:49:53;;;;;;;;;;;11.40;91.70;;;;;;5068352;28;20003;-69
2022/05/03 02:52:35;;;;;;;;;;;11.30;91.80;;;;;;5067922;28;19966;-70
2022/05/03 02:55:16;;;;;;;;;;;11.30;91.80;;;;;;5050925;28;19944;-70
2022/05/03 02:57:41;;;;;;;;;;;11.30;91.80;;;;;;5066997;28;20245;-70
2022/05/03 03:03:16;;;;;;;;;;;11.30;92.00;;;;;;5067601;28;19920;-71
2022/05/03 03:05:44;;;;;;;;;;;11.20;92.00;;;;;;5071159;28;19931;-71
2022/05/03 03:08:13;;;;;;;;;;;11.20;92.10;;;;;;5066312;28;19923;-71
2022/05/03 03:10:43;;;;;;;;;;;11.20;92.10;;;;;;5068711;28;19912;-72
2022/05/03 03:13:28;;;;;;;;;;;11.10;92.10;;;;;;5067759;28;19908;-71
2022/05/03 03:15:54;;;;;;;;;;;11.10;92.10;;;;;;5068949;28;20273;-71
2022/05/03 03:18:22;;;;;;;;;;;11.10;92.10;;;;;;5064875;28;20427;-71
2022/05/03 03:20:58;;;;;;;;;;;11.00;92.20;;;;;;5070454;28;19999;-71
2022/05/03 03:23:28;;;;;;;;;;;11.00;92.20;;;;;;5067748;28;19957;-71
2022/05/03 03:25:54;;;;;;;;;;;11.00;92.30;;;;;;5070215;28;20293;-72
2022/05/03 03:28:21;;;;;;;;;;;11.00;92.30;;;;;;5066638;28;19958;-71
2022/05/03 03:30:48;;;;;;;;;;;11.00;92.40;;;;;;5070519;28;20514;-71
2022/05/03 03:33:14;;;;;;;;;;;10.90;92.50;;;;;;5063733;28;19908;-72
2022/05/03 03:35:41;;;;;;;;;;;10.90;92.50;;;;;;5066279;28;19912;-71
2022/05/03 03:38:07;;;;;;;;;;;10.90;92.60;;;;;;5066653;28;19912;-70
2022/05/03 03:40:32;;;;;;;;;;;10.90;92.60;;;;;;5068696;28;20033;-71
2022/05/03 03:42:58;;;;;;;;;;;10.80;92.60;;;;;;5063566;28;19966;-70
2022/05/03 03:45:23;;;;;;;;;;;11.30;93.20;;;;;;5069011;28;19916;-70
2022/05/03 03:47:49;;;;;;;;;;;11.60;92.70;;;;;;5067920;28;20369;-70
2022/05/03 03:50:15;;;;;;;;;;;11.80;92.50;;;;;;5066571;28;20368;-71
2022/05/03 03:52:41;;;;;;;;;;;11.90;92.00;;;;;;5066628;28;19908;-70
2022/05/03 03:55:10;;;;;;;;;;;11.90;92.10;;;;;;5067603;28;20364;-70
2022/05/03 03:57:36;;;;;;;;;;;12.00;92.10;;;;;;5067162;28;19908;-70
2022/05/03 04:00:09;;;;;;;;;;;12.10;91.90;;;;;;5067129;28;19912;-71
2022/05/03 04:02:40;;;;;;;;;;;11.80;92.20;;;;;;5062862;28;19912;-70
2022/05/03 04:05:06;;;;;;;;;;;11.50;92.60;;;;;;5067389;28;19991;-70
2022/05/03 04:07:32;;;;;;;;;;;11.40;92.80;;;;;;5066424;28;20089;-70
2022/05/03 04:09:57;;;;;;;;;;;11.80;92.80;;;;;;5067879;28;20006;-69
2022/05/03 04:12:24;;;;;;;;;;;12.10;92.40;;;;;;5063502;28;19916;-71
2022/05/03 04:14:50;;;;;;;;;;;12.20;92.10;;;;;;5068255;28;20262;-72
2022/05/03 04:17:15;;;;;;;;;;;12.30;92.00;;;;;;5067212;28;19908;-70
2022/05/03 04:19:42;;;;;;;;;;;12.40;91.80;;;;;;5067646;28;19920;-70
2022/05/03 04:22:23;;;;;;;;;;;12.10;92.20;;;;;;5064633;28;19970;-69
2022/05/03 04:24:49;;;;;;;;;;;11.80;92.50;;;;;;5065254;28;20038;-70
2022/05/03 04:27:15;;;;;;;;;;;11.70;92.60;;;;;;5065476;28;20014;-72
2022/05/03 04:29:40;;;;;;;;;;;11.60;92.80;;;;;;5067933;28;19923;-71
2022/05/03 04:32:06;;;;;;;;;;;11.50;92.90;;;;;;5063305;28;20359;-71
2022/05/03 04:34:32;;;;;;;;;;;11.40;93.00;;;;;;5065258;28;20499;-69
2022/05/03 04:36:58;;;;;;;;;;;11.40;93.10;;;;;;5067795;28;19920;-70
2022/05/03 04:39:23;;;;;;;;;;;11.40;93.20;;;;;;5067558;28;19918;-70
2022/05/03 04:41:49;;;;;;;;;;;11.40;93.20;;;;;;5062814;28;19920;-65
2022/05/03 04:44:14;;;;;;;;;;;11.40;93.30;;;;;;5065265;28;19939;-70
2022/05/03 04:46:40;;;;;;;;;;;11.50;93.40;;;;;;5066356;28;19909;-73
2022/05/03 04:49:05;;;;;;;;;;;11.50;93.40;;;;;;5068617;28;20308;-71
2022/05/03 04:51:31;;;;;;;;;;;11.50;93.50;;;;;;5067461;28;19938;-71
2022/05/03 04:53:57;;;;;;;;;;;11.60;93.60;;;;;;5067556;28;19915;-72
2022/05/03 04:56:24;;;;;;;;;;;11.60;93.70;;;;;;5066702;28;19927;-71
2022/05/03 04:58:50;;;;;;;;;;;11.70;93.90;;;;;;5069132;28;20369;-71
2022/05/03 05:01:16;;;;;;;;;;;11.70;94.00;;;;;;5066052;28;19916;-71
2022/05/03 05:03:42;;;;;;;;;;;11.70;94.10;;;;;;5067860;28;19942;-71
2022/05/03 05:06:09;;;;;;;;;;;11.70;94.30;;;;;;5070082;28;19943;-70
2022/05/03 05:08:35;;;;;;;;;;;11.80;94.40;;;;;;5067783;28;19912;-71
2022/05/03 05:11:01;;;;;;;;;;;11.90;94.60;;;;;;5066475;28;19952;-71
2022/05/03 05:13:26;;;;;;;;;;;11.90;94.80;;;;;;5064661;28;19954;-71
2022/05/03 05:15:52;;;;;;;;;;;12.00;94.90;;;;;;5067494;28;19958;-71
2022/05/03 05:18:17;;;;;;;;;;;12.00;95.10;;;;;;5066950;28;19948;-70
2022/05/03 05:20:43;;;;;;;;;;;12.00;95.10;;;;;;5063825;28;20717;-72
2022/05/03 05:23:08;;;;;;;;;;;12.10;95.30;;;;;;5067164;28;19904;-71
2022/05/03 05:25:34;;;;;;;;;;;12.10;95.40;;;;;;5063283;28;19912;-71
2022/05/03 05:28:00;;;;;;;;;;;12.20;95.60;;;;;;5061241;28;19909;-71
2022/05/03 05:30:26;;;;;;;;;;;12.20;95.70;;;;;;5067059;28;20002;-71
2022/05/03 05:32:52;;;;;;;;;;;12.30;95.80;;;;;;5061165;28;19916;-72
2022/05/03 05:35:17;;;;;;;;;;;12.30;96.00;;;;;;5066807;28;19920;-72
2022/05/03 05:37:43;;;;;;;;;;;12.30;96.10;;;;;;5066430;28;20430;-71
2022/05/03 05:40:09;;;;;;;;;;;12.30;96.20;;;;;;5065776;28;19908;-70
2022/05/03 05:42:35;;;;;;;;;;;12.40;96.40;;;;;;5064905;28;19904;-70
2022/05/03 05:45:00;;;;;;;;;;;12.40;96.60;;;;;;5068269;28;19977;-71
2022/05/03 05:47:27;;;;;;;;;;;12.50;96.70;;;;;;5064635;28;19938;-69
2022/05/03 05:49:53;;;;;;;;;;;12.50;96.80;;;;;;5066824;28;19908;-72
2022/05/03 05:55:03;;;;;;;;;;;12.70;97.10;;;;;;5070537;28;19912;-70
2022/05/03 05:57:32;;;;;;;;;;;12.70;97.20;;;;;;5068211;28;20298;-68
2022/05/03 05:59:57;;;;;;;;;;;12.80;97.30;;;;;;5064734;28;19965;-71
2022/05/03 06:02:23;;;;;;;;;;;12.80;97.40;;;;;;5070135;28;19916;-71
2022/05/03 06:04:49;;;;;;;;;;;12.80;97.50;;;;;;5065442;28;19924;-73
2022/05/03 06:07:14;;;;;;;;;;;12.90;97.60;;;;;;5069835;28;19962;-70
2022/05/03 06:09:40;;;;;;;;;;;13.00;97.70;;;;;;5069489;28;19909;-71
2022/05/03 06:12:05;;;;;;;;;;;13.00;97.70;;;;;;5068947;28;19908;-71
2022/05/03 06:14:32;;;;;;;;;;;13.10;97.80;;;;;;5065112;28;20058;-70
2022/05/03 06:16:57;;;;;;;;;;;13.10;97.80;;;;;;5069420;28;20369;-71
2022/05/03 06:19:23;;;;;;;;;;;13.70;98.10;;;;;;5068936;28;19922;-70
2022/05/03 06:21:49;;;;;;;;;;;14.10;97.70;;;;;;5070131;28;19908;-71
2022/05/03 06:24:15;;;;;;;;;;;14.40;97.20;;;;;;5067185;28;19931;-70
2022/05/03 06:26:41;;;;;;;;;;;14.50;96.80;;;;;;5069291;28;19974;-70
2022/05/03 06:29:08;;;;;;;;;;;14.70;96.40;;;;;;5071428;28;20338;-70
2022/05/03 06:31:37;;;;;;;;;;;14.30;96.80;;;;;;5068853;28;19920;-70
2022/05/03 06:34:03;;;;;;;;;;;14.10;97.20;;;;;;5069156;28;19995;-71
2022/05/03 06:36:29;;;;;;;;;;;14.00;97.40;;;;;;5067783;28;20001;-71
2022/05/03 06:38:55;;;;;;;;;;;13.90;97.50;;;;;;5069889;28;20327;-71
2022/05/03 06:41:20;;;;;;;;;;;13.80;97.60;;;;;;5066867;28;19916;-72
2022/05/03 06:43:46;;;;;;;;;;;13.80;97.70;;;;;;5052533;28;20014;-74
2022/05/03 06:46:11;;;;;;;;;;;13.70;97.70;;;;;;5064668;28;19909;-72
2022/05/03 06:48:37;;;;;;;;;;;13.70;97.80;;;;;;5069288;28;19912;-71
2022/05/03 06:51:03;;;;;;;;;;;13.70;97.90;;;;;;5066235;28;20643;-72
2022/05/03 06:53:29;;;;;;;;;;;13.70;97.90;;;;;;5071264;28;20375;-72
2022/05/03 06:55:55;;;;;;;;;;;13.80;98.00;;;;;;5069142;28;19919;-74
2022/05/03 06:58:20;;;;;;;;;;;13.80;98.00;;;;;;5069003;28;19943;-71
2022/05/03 07:00:46;;;;;;;;;;;13.80;98.00;;;;;;5055204;28;19904;-72
2022/05/03 07:03:12;;;;;;;;;;;13.80;98.00;;;;;;5068076;28;19916;-73
2022/05/03 07:05:38;;;;;;;;;;;13.90;98.10;;;;;;5067362;28;19909;-73
2022/05/03 07:08:04;;;;;;;;;;;13.90;98.10;;;;;;5066723;28;20345;-73
2022/05/03 07:10:30;;;;;;;;;;;14.00;98.30;;;;;;5066845;28;19913;-73
2022/05/03 07:12:55;;;;;;;;;;;14.80;97.80;;;;;;5070613;28;19912;-71
2022/05/03 07:15:21;;;;;;;;;;;15.30;96.40;;;;;;5067405;28;19920;-72
2022/05/03 07:23:16;;;;;;;;;;;15.90;94.40;;;;;;5069322;28;20289;-69
2022/05/03 07:25:44;;;;;;;;;;;15.90;94.20;;;;;;5063021;28;19919;-70
2022/05/03 07:28:10;;;;;;;;;;;15.90;93.80;;;;;;5066744;28;20353;-70
2022/05/03 07:30:36;;;;;;;;;;;15.90;93.90;;;;;;5065368;28;19924;-66
2022/05/03 07:33:02;;;;;;;;;;;15.90;93.80;;;;;;5068927;28;19912;-71
2022/05/03 07:35:27;;;;;;;;;;;15.80;93.90;;;;;;5067006;28;19969;-71
2022/05/03 07:37:53;;;;;;;;;;;15.80;94.10;;;;;;5069813;28;19912;-70
2022/05/03 07:40:19;;;;;;;;;;;15.80;93.90;;;;;;5067004;28;19914;-70
2022/05/03 07:42:44;;;;;;;;;;;15.80;93.70;;;;;;5065667;28;19908;-70
2022/05/03 07:45:10;;;;;;;;;;;15.80;93.80;;;;;;5065915;28;20353;-70
2022/05/03 07:47:36;;;;;;;;;;;15.80;93.70;;;;;;5068457;28;20390;-71
2022/05/03 07:50:03;;;;;;;;;;;15.80;93.50;;;;;;5067657;28;19912;-70
2022/05/03 07:52:28;;;;;;;;;;;15.80;93.60;;;;;;5070058;28;19923;-70
2022/05/03 07:54:55;;;;;;;;;;;15.80;93.50;;;;;;5065889;28;19920;-70
2022/05/03 07:57:20;;;;;;;;;;;15.80;93.70;;;;;;5066305;28;19912;-71
2022/05/03 07:59:46;;;;;;;;;;;15.80;93.70;;;;;;5068077;28;19919;-69
2022/05/03 08:02:12;;;;;;;;;;;15.80;93.70;;;;;;5067610;28;20231;-70
2022/05/03 08:04:39;;;;;;;;;;;15.90;94.00;;;;;;5065499;28;20013;-70
2022/05/03 08:07:05;;;;;;;;;;;15.90;93.70;;;;;;5058070;28;20285;-70
2022/05/03 08:09:31;;;;;;;;;;;16.10;93.50;;;;;;5063360;28;19917;-70
2022/05/03 08:11:57;;;;;;;;;;;16.10;93.50;;;;;;5068405;28;19913;-70
2022/05/03 08:14:22;;;;;;;;;;;16.20;93.40;;;;;;5062567;28;20080;-70
2022/05/03 08:16:48;;;;;;;;;;;16.30;93.00;;;;;;5067601;28;19953;-70
2022/05/03 08:19:13;;;;;;;;;;;16.20;93.10;;;;;;5065371;28;19920;-70
2022/05/03 08:21:39;;;;;;;;;;;16.30;93.00;;;;;;5067433;28;20479;-70
2022/05/03 08:24:05;;;;;;;;;;;16.30;93.20;;;;;;5066313;28;20393;-70
2022/05/03 08:26:33;;;;;;;;;;;16.30;93.10;;;;;;5083165;28;20700;-70
2022/05/03 08:28:58;;;;;;;;;;;16.30;92.20;;;;;;5068734;28;19908;-70
2022/05/03 08:31:24;;;;;;;;;;;16.30;92.00;;;;;;5068157;28;19966;-70
2022/05/03 08:33:49;;;;;;;;;;;16.30;92.60;;;;;;5067123;28;19948;-70
2022/05/03 08:36:15;;;;;;;;;;;16.30;91.80;;;;;;5068549;28;20272;-70
2022/05/03 08:44:09;;;;;;;;;;;16.10;91.70;;;;;;5066521;28;19940;-70
2022/05/03 08:46:36;;;;;;;;;;;16.10;92.40;;;;;;5066942;28;19956;-70
2022/05/03 08:49:04;;;;;;;;;;;16.10;93.00;;;;;;5068152;28;20688;-69
2022/05/03 08:51:31;;;;;;;;;;;16.10;92.70;;;;;;5066813;28;19912;-70
2022/05/03 08:53:58;;;;;;;;;;;16.10;92.30;;;;;;5063606;28;20357;-69
2022/05/03 08:56:24;;;;;;;;;;;16.00;91.30;;;;;;5049761;28;19931;-70
2022/05/03 08:58:49;;;;;;;;;;;15.90;91.50;;;;;;5067822;28;19912;-70
2022/05/03 09:01:15;;;;;;;;;;;15.90;91.80;;;;;;5065341;28;20393;-70
2022/05/03 09:03:41;;;;;;;;;;;15.90;91.80;;;;;;5067963;28;19997;-70
2022/05/03 09:06:07;;;;;;;;;;;15.90;91.50;;;;;;5066452;28;19917;-70
2022/05/03 09:08:33;;;;;;;;;;;15.90;91.20;;;;;;5066335;28;19913;-69
2022/05/03 09:10:59;;;;;;;;;;;15.90;91.50;;;;;;5066362;28;19908;-69
2022/05/03 09:13:26;;;;;;;;;;;15.90;91.90;;;;;;5068988;28;19999;-70
2022/05/03 09:15:55;;;;;;;;;;;15.90;91.60;;;;;;5048489;28;19917;-70
2022/05/03 09:18:26;;;;;;;;;;;15.90;91.10;;;;;;5069037;28;19924;-71
2022/05/03 09:23:49;;;;;;;;;;;16.00;92.00;;;;;;5071701;28;19912;-70
2022/05/03 09:26:15;;;;;;;;;;;16.00;92.10;;;;;;5068485;28;19954;-70
2022/05/03 09:28:43;;;;;;;;;;;16.10;91.80;;;;;;5071085;28;20303;-70
2022/05/03 09:31:09;;;;;;;;;;;16.20;91.60;;;;;;5070620;28;19927;-70
2022/05/03 09:33:36;;;;;;;;;;;16.30;91.20;;;;;;5073190;28;19912;-70
2022/05/03 09:36:06;;;;;;;;;;;16.30;91.20;;;;;;5069019;28;19912;-70
2022/05/03 09:38:42;;;;;;;;;;;16.40;91.10;;;;;;5073269;28;19922;-70
2022/05/03 09:41:14;;;;;;;;;;;16.50;90.90;;;;;;5071381;28;19908;-71
2022/05/03 09:43:58;;;;;;;;;;;16.50;90.80;;;;;;5070315;28;20266;-71
2022/05/03 09:46:24;;;;;;;;;;;16.60;90.30;;;;;;5071085;28;19955;-70
2022/05/03 09:48:50;;;;;;;;;;;16.60;90.00;;;;;;5070248;28;19977;-71
2022/05/03 09:51:16;;;;;;;;;;;16.60;88.80;;;;;;5069833;28;19949;-71
2022/05/03 09:53:41;;;;;;;;;;;16.50;89.10;;;;;;5071743;28;19908;-70
2022/05/03 09:56:11;;;;;;;;;;;16.50;89.10;;;;;;5070744;28;20011;-66
2022/05/03 09:58:38;;;;;;;;;;;16.50;89.30;;;;;;5064977;28;20067;-69
2022/05/03 10:01:04;;;;;;;;;;;16.50;89.30;;;;;;5063420;28;19966;-68
2022/05/03 10:03:29;;;;;;;;;;;16.60;88.90;;;;;;5072347;28;20388;-69
2022/05/03 10:05:55;;;;;;;;;;;16.60;89.10;;;;;;5068727;28;19931;-69
2022/05/03 10:08:22;;;;;;;;;;;16.60;88.30;;;;;;5068023;28;19979;-71
2022/05/03 10:10:56;;;;;;;;;;;16.60;88.60;;;;;;5067433;28;19934;-71
2022/05/03 10:13:21;;;;;;;;;;;16.60;88.80;;;;;;5064742;28;19912;-68
2022/05/03 10:21:25;;;;;;;;;;;16.40;89.30;;;;;;5071131;28;19908;-71
2022/05/03 10:24:12;;;;;;;;;;;16.40;90.20;;;;;;5070666;28;19912;-71
2022/05/03 10:26:56;;;;;;;;;;;16.40;90.40;;;;;;5069527;28;19909;-70
2022/05/03 10:29:22;;;;;;;;;;;16.30;90.20;;;;;;5066779;28;20723;-71
2022/05/03 10:31:54;;;;;;;;;;;16.30;90.20;;;;;;5070029;28;20002;-70
2022/05/03 10:34:43;;;;;;;;;;;16.20;90.30;;;;;;5070417;28;19913;-70
2022/05/03 10:37:16;;;;;;;;;;;16.20;90.20;;;;;;5066587;28;19916;-70
2022/05/03 10:39:51;;;;;;;;;;;16.20;90.10;;;;;;5069478;28;19916;-70
2022/05/03 10:42:17;;;;;;;;;;;16.10;90.30;;;;;;5071433;28;20022;-71
2022/05/03 10:44:42;;;;;;;;;;;16.10;89.30;;;;;;5070196;28;19916;-71
2022/05/03 10:47:12;;;;;;;;;;;16.00;89.70;;;;;;5071695;28;19912;-71
2022/05/03 10:49:57;;;;;;;;;;;15.60;90.40;;;;;;5068993;28;20361;-71
2022/05/03 10:52:23;;;;;;;;;;;15.30;90.80;;;;;;5072077;28;19919;-70
2022/05/03 10:55:06;;;;;;;;;;;15.00;91.10;;;;;;5067688;28;20405;-70
2022/05/03 10:57:32;;;;;;;;;;;14.90;91.20;;;;;;5071456;28;19916;-72
2022/05/03 10:59:57;;;;;;;;;;;14.80;91.50;;;;;;5066131;28;20301;-72
2022/05/03 11:02:23;;;;;;;;;;;14.70;91.80;;;;;;5070472;28;20254;-69
2022/05/03 11:05:12;;;;;;;;;;;14.70;92.10;;;;;;5068854;28;19915;-70
2022/05/03 11:07:38;;;;;;;;;;;14.60;92.20;;;;;;5071452;28;19957;-70
2022/05/03 11:10:22;;;;;;;;;;;14.60;92.40;;;;;;5068538;28;21168;-70
2022/05/03 11:12:51;;;;;;;;;;;14.50;92.60;;;;;;5070823;28;19917;-70
2022/05/03 11:15:16;;;;;;;;;;;14.50;92.70;;;;;;5070621;28;19915;-71
2022/05/03 11:17:42;;;;;;;;;;;14.50;92.80;;;;;;5066950;28;19987;-70
2022/05/03 11:20:08;;;;;;;;;;;14.40;92.80;;;;;;5068758;28;19916;-70
2022/05/03 11:22:35;;;;;;;;;;;14.40;92.90;;;;;;5069977;28;19912;-70
2022/05/03 11:25:06;;;;;;;;;;;14.40;93.00;;;;;;5068855;28;19908;-70
2022/05/03 11:27:32;;;;;;;;;;;14.40;93.10;;;;;;5067940;28;19923;-70
2022/05/03 11:29:59;;;;;;;;;;;14.30;93.30;;;;;;5068870;28;19915;-70
2022/05/03 11:32:29;;;;;;;;;;;14.40;93.30;;;;;;5069416;28;19961;-70
2022/05/03 11:35:02;;;;;;;;;;;14.40;93.40;;;;;;5066779;28;20323;-70
2022/05/03 11:37:28;;;;;;;;;;;14.40;93.40;;;;;;5065753;28;20446;-70
2022/05/03 11:39:59;;;;;;;;;;;14.40;93.50;;;;;;5070267;28;19987;-71
2022/05/03 11:42:26;;;;;;;;;;;14.50;93.60;;;;;;5068439;28;20023;-71
2022/05/03 11:44:52;;;;;;;;;;;14.50;93.60;;;;;;5066839;28;20404;-71
2022/05/03 11:47:17;;;;;;;;;;;14.50;93.60;;;;;;5067490;28;19912;-71
2022/05/03 11:49:43;;;;;;;;;;;14.50;93.60;;;;;;5068695;28;19908;-70
2022/05/03 11:57:42;;;;;;;;;;;14.60;93.80;;;;;;5069084;28;19920;-70
2022/05/03 12:00:10;;;;;;;;;;;14.60;93.70;;;;;;5069027;28;20281;-71
2022/05/03 12:02:37;;;;;;;;;;;14.70;93.70;;;;;;5068661;28;19999;-71
2022/05/03 12:05:06;;;;;;;;;;;14.70;93.70;;;;;;5067300;28;20042;-71
2022/05/03 12:07:39;;;;;;;;;;;14.70;93.70;;;;;;5057446;28;19913;-70
2022/05/03 12:10:15;;;;;;;;;;;14.70;93.60;;;;;;5067489;28;19952;-71
2022/05/03 12:12:43;;;;;;;;;;;14.70;93.40;;;;;;5065787;28;19955;-71
2022/05/03 12:15:19;;;;;;;;;;;14.70;93.30;;;;;;5067700;28;19912;-71
2022/05/03 12:18:11;;;;;;;;;;;14.70;93.20;;;;;;5069321;28;19908;-72
2022/05/03 12:20:47;;;;;;;;;;;14.80;93.10;;;;;;5066052;28;19908;-70
2022/05/03 12:23:15;;;;;;;;;;;14.70;93.00;;;;;;5069127;28;19909;-70
2022/05/03 12:25:41;;;;;;;;;;;14.70;92.90;;;;;;5066098;28;19922;-71
2022/05/03 12:28:07;;;;;;;;;;;14.70;92.90;;;;;;5069235;28;19912;-70
2022/05/03 12:30:33;;;;;;;;;;;14.70;92.90;;;;;;5067157;28;19916;-71
2022/05/03 12:33:06;;;;;;;;;;;14.70;92.90;;;;;;5068012;28;20296;-70
2022/05/03 12:35:32;;;;;;;;;;;14.70;93.00;;;;;;5067795;28;19942;-70
2022/05/03 12:38:06;;;;;;;;;;;14.60;93.00;;;;;;5065668;28;19912;-72
2022/05/03 12:40:33;;;;;;;;;;;14.60;93.10;;;;;;5068044;28;20380;-70
2022/05/03 12:43:08;;;;;;;;;;;14.60;93.00;;;;;;5068517;28;20281;-70
2022/05/03 12:45:33;;;;;;;;;;;14.50;93.00;;;;;;5066512;28;19947;-70
2022/05/03 12:47:59;;;;;;;;;;;14.50;93.00;;;;;;5069884;28;19962;-70
2022/05/03 12:50:27;;;;;;;;;;;15.10;92.30;;;;;;5068285;28;20671;-70
2022/05/03 12:52:52;;;;;;;;;;;15.40;91.60;;;;;;5069166;28;19919;-70
2022/05/03 12:55:19;;;;;;;;;;;15.60;91.10;;;;;;5069408;28;19912;-69
2022/05/03 13:00:32;;;;;;;;;;;15.80;89.50;;;;;;5070569;28;19917;-68
2022/05/03 13:03:00;;;;;;;;;;;15.90;87.60;;;;;;5073171;28;19908;-67
2022/05/03 13:05:26;;;;;;;;;;;16.00;86.80;;;;;;5069026;28;19908;-68
2022/05/03 13:07:51;;;;;;;;;;;16.10;85.70;;;;;;5072564;28;20273;-69
2022/05/03 13:10:17;;;;;;;;;;;16.20;84.40;;;;;;5070893;28;19973;-67
2022/05/03 13:12:42;;;;;;;;;;;16.30;83.20;;;;;;5070252;28;19909;-70
2022/05/03 13:15:10;;;;;;;;;;;16.30;82.50;;;;;;5069283;28;20014;-68
2022/05/03 13:17:36;;;;;;;;;;;16.40;82.60;;;;;;5069446;28;19928;-68
2022/05/03 13:20:01;;;;;;;;;;;16.50;81.80;;;;;;5066904;28;19908;-68
2022/05/03 13:22:27;;;;;;;;;;;16.60;81.00;;;;;;5071618;28;20050;-68
2022/05/03 13:24:52;;;;;;;;;;;16.70;80.70;;;;;;5064667;28;19912;-68
2022/05/03 13:27:18;;;;;;;;;;;16.80;79.50;;;;;;5067774;28;19958;-68
2022/05/03 13:29:44;;;;;;;;;;;16.80;78.00;;;;;;5070239;28;19923;-69
2022/05/03 13:32:09;;;;;;;;;;;16.90;76.70;;;;;;5070727;28;19924;-66
2022/05/03 13:34:35;;;;;;;;;;;16.90;75.70;;;;;;5071848;28;19908;-68
2022/05/03 13:42:29;;;;;;;;;;;17.10;74.00;;;;;;5069546;28;19912;-69
2022/05/03 13:44:55;;;;;;;;;;;17.20;73.50;;;;;;5069599;28;19917;-67
2022/05/03 13:47:20;;;;;;;;;;;17.40;73.60;;;;;;5067138;28;19915;-69
2022/05/03 13:49:48;;;;;;;;;;;17.60;72.70;;;;;;5053381;28;19963;-68
2022/05/03 13:52:13;;;;;;;;;;;17.70;72.40;;;;;;5070024;28;19961;-69
2022/05/03 13:54:39;;;;;;;;;;;17.80;70.90;;;;;;5071387;28;19912;-68
2022/05/03 13:57:05;;;;;;;;;;;17.80;70.50;;;;;;5068725;28;20352;-69
2022/05/03 13:59:31;;;;;;;;;;;17.80;70.00;;;;;;5070150;28;19926;-69
2022/05/03 14:01:56;;;;;;;;;;;17.80;69.50;;;;;;5070312;28;19995;-71
2022/05/03 14:04:23;;;;;;;;;;;17.80;70.00;;;;;;5070656;28;20103;-71
2022/05/03 14:06:49;;;;;;;;;;;17.70;69.60;;;;;;5069706;28;19908;-71
2022/05/03 14:09:15;;;;;;;;;;;17.60;70.10;;;;;;5070614;28;19951;-71
2022/05/03 14:11:41;;;;;;;;;;;17.60;70.80;;;;;;5069850;28;20009;-71
2022/05/03 14:14:06;;;;;;;;;;;17.60;70.00;;;;;;5070306;28;19912;-71
2022/05/03 14:16:32;;;;;;;;;;;17.60;70.50;;;;;;5069549;28;19916;-71
2022/05/03 14:18:58;;;;;;;;;;;17.60;70.10;;;;;;5071800;28;19908;-70
2022/05/03 14:21:24;;;;;;;;;;;17.60;69.40;;;;;;5067443;28;20057;-72
2022/05/03 14:23:49;;;;;;;;;;;17.60;69.40;;;;;;5069999;28;19994;-71
2022/05/03 14:26:15;;;;;;;;;;;17.60;69.30;;;;;;5050493;28;19909;-71
2022/05/03 14:28:43;;;;;;;;;;;17.60;68.60;;;;;;5051903;28;20343;-72
2022/05/03 14:31:09;;;;;;;;;;;17.60;68.40;;;;;;5068985;28;19921;-71
2022/05/03 14:33:34;;;;;;;;;;;17.60;69.20;;;;;;5072449;28;19908;-71
2022/05/03 14:36:00;;;;;;;;;;;17.60;69.00;;;;;;5070004;28;19912;-72
2022/05/03 14:38:25;;;;;;;;;;;17.60;68.30;;;;;;5071036;28;19923;-71
2022/05/03 14:40:52;;;;;;;;;;;17.60;68.20;;;;;;5069729;28;20289;-71
2022/05/03 14:43:18;;;;;;;;;;;17.60;68.20;;;;;;5068335;28;19908;-70
2022/05/03 14:45:45;;;;;;;;;;;17.50;68.10;;;;;;5069356;28;20241;-71
2022/05/03 14:48:11;;;;;;;;;;;17.50;68.00;;;;;;5069956;28;19983;-71
2022/05/03 14:50:36;;;;;;;;;;;17.50;68.00;;;;;;5066529;28;20347;-71
2022/05/03 14:53:03;;;;;;;;;;;17.50;67.70;;;;;;5067929;28;19916;-70
2022/05/03 14:55:29;;;;;;;;;;;17.50;68.30;;;;;;5069140;28;19908;-71
2022/05/03 15:03:23;;;;;;;;;;;17.60;67.70;;;;;;5067376;28;20618;-70